Current Weather

Phoenix Goodyear

Goodyear, Arizona (KGYR)

Report from: Tuesday, May 28, 2024 8:47 PM MST
Current time: Wednesday, May 29, 2024 1:53 AM MST

Nearby weather – Weather history – Daily summaries
Weather forecast

Temperature33.0°C (91.4°F)
Heat index30.6°C (87.1°F)
Dew point1.0°C (33.8°F)
Winds 8 kts (4.1 m/s, 9.2 mph) West (270°)
Visibility10 mi. (16.1 km)
Clouds Scattered clouds 25,000 ft. (7,620 m)
Altimeter29.82 in.Hg (1010 mB)
Relative humidity13 %
Density altitude2,269 ft. (692 m)
Flight conditions Visual Meteorological Conditions
Raw dataKGYR 290347Z 27008KT 10SM SCT250 33/01 A2982
An error has occurred. This application may no longer respond until reloaded. Reload 🗙